Time;durP1;ratioP1;P1;durP2;ratioP2;P2;SDS_P1;SDS_P2;PMS_P1;PMS_P2;Temp;Humidity;BMP_temperature;BMP_pressure;BME280_temperature;BME280_humidity;BME280_pressure;Samples;Min_cycle;Max_cycle;Signal;HPM_P1;HPM_P2
2023/12/22 00:02:28;;;;;;;0.00;0.00;;;23.60;50.50;;;;;;5051546;28;20223;-48
2023/12/22 00:04:59;;;;;;;0.00;0.00;;;23.70;50.50;;;;;;5052308;28;20573;-47
2023/12/22 00:07:29;;;;;;;0.00;0.00;;;23.70;50.60;;;;;;5050591;28;20196;-48
2023/12/22 00:10:00;;;;;;;0.00;0.00;;;23.70;50.70;;;;;;5032494;28;20243;-51
2023/12/22 00:12:33;;;;;;;0.00;0.00;;;23.70;50.70;;;;;;5031097;28;20622;-45
2023/12/22 00:15:04;;;;;;;0.00;0.00;;;23.70;50.60;;;;;;5032113;28;20211;-47
2023/12/22 00:17:34;;;;;;;0.00;0.00;;;23.70;50.60;;;;;;5050629;28;20279;-49
2023/12/22 00:20:05;;;;;;;0.00;0.00;;;23.70;50.60;;;;;;5048551;28;20192;-45
2023/12/22 00:22:36;;;;;;;0.00;0.00;;;23.70;50.60;;;;;;5050913;28;20223;-44
2023/12/22 00:25:07;;;;;;;0.00;0.00;;;23.70;50.60;;;;;;5050604;28;20207;-47
2023/12/22 00:27:40;;;;;;;0.00;0.00;;;23.70;50.50;;;;;;5051513;28;20278;-46
2023/12/22 00:30:12;;;;;;;0.00;0.00;;;23.70;50.50;;;;;;5051314;28;20196;-43
2023/12/22 00:32:42;;;;;;;0.10;0.10;;;23.70;50.60;;;;;;5051688;28;20651;-44
2023/12/22 00:35:13;;;;;;;0.00;0.00;;;23.70;50.50;;;;;;5031168;28;20219;-43
2023/12/22 00:37:44;;;;;;;0.00;0.00;;;23.80;50.50;;;;;;5039897;28;20199;-43
2023/12/22 00:40:15;;;;;;;0.00;0.00;;;23.70;50.50;;;;;;5047536;28;20189;-43
2023/12/22 00:42:47;;;;;;;0.00;0.00;;;23.80;50.50;;;;;;5031659;28;20606;-44
2023/12/22 00:45:18;;;;;;;0.10;0.10;;;23.80;50.50;;;;;;5033360;28;20575;-43
2023/12/22 00:47:49;;;;;;;0.00;0.00;;;23.80;50.50;;;;;;5051176;28;20211;-43
2023/12/22 00:50:20;;;;;;;0.00;0.00;;;23.80;50.50;;;;;;5047015;28;20659;-43
2023/12/22 00:52:50;;;;;;;0.00;0.00;;;23.80;50.40;;;;;;5029541;28;20211;-44
2023/12/22 00:55:21;;;;;;;0.10;0.10;;;23.80;50.40;;;;;;5060006;28;20215;-43
2023/12/22 00:57:54;;;;;;;0.10;0.10;;;23.80;50.40;;;;;;5030718;28;20542;-43
2023/12/22 01:00:25;;;;;;;0.00;0.00;;;23.80;50.40;;;;;;5033930;28;20196;-43
2023/12/22 01:02:55;;;;;;;0.00;0.00;;;23.90;50.40;;;;;;5030146;28;20216;-43
2023/12/22 01:05:26;;;;;;;0.00;0.00;;;23.90;50.40;;;;;;5030020;28;20566;-43
2023/12/22 01:07:57;;;;;;;0.00;0.00;;;23.80;50.40;;;;;;5041562;28;20206;-44
2023/12/22 01:10:28;;;;;;;0.03;0.03;;;23.90;50.40;;;;;;5046051;28;20192;-43
2023/12/22 01:13:00;;;;;;;0.00;0.00;;;23.90;50.40;;;;;;5032443;28;20200;-44
2023/12/22 01:15:31;;;;;;;0.00;0.00;;;23.90;50.30;;;;;;5047852;28;20204;-43
2023/12/22 01:18:02;;;;;;;0.00;0.00;;;23.90;50.20;;;;;;5039086;28;20731;-46
2023/12/22 01:20:32;;;;;;;0.00;0.00;;;23.90;50.20;;;;;;5031675;28;20196;-47
2023/12/22 01:23:03;;;;;;;0.08;0.08;;;23.90;50.20;;;;;;5049106;28;20223;-48
2023/12/22 01:25:34;;;;;;;0.00;0.00;;;23.90;50.20;;;;;;5030513;28;20216;-51
2023/12/22 01:28:06;;;;;;;0.00;0.00;;;23.90;50.20;;;;;;5030971;28;20287;-46
2023/12/22 01:30:37;;;;;;;0.00;0.00;;;23.90;50.20;;;;;;5031033;28;20196;-50
2023/12/22 01:33:08;;;;;;;0.00;0.00;;;23.90;50.20;;;;;;5031102;28;20200;-48
2023/12/22 01:35:39;;;;;;;0.00;0.00;;;23.90;50.20;;;;;;5030779;28;20212;-48
2023/12/22 01:38:09;;;;;;;0.00;0.00;;;23.90;50.20;;;;;;5043631;28;20200;-52
2023/12/22 01:40:40;;;;;;;0.00;0.00;;;24.00;50.20;;;;;;5050971;28;20206;-48
2023/12/22 01:43:13;;;;;;;0.00;0.00;;;24.00;50.20;;;;;;5050807;28;20231;-45
2023/12/22 01:45:44;;;;;;;0.00;0.00;;;24.00;50.20;;;;;;5050760;28;20223;-43
2023/12/22 01:48:15;;;;;;;0.00;0.00;;;24.00;50.10;;;;;;5050820;28;20192;-43
2023/12/22 01:50:46;;;;;;;0.00;0.00;;;24.00;50.10;;;;;;5044144;28;20203;-43
2023/12/22 01:53:17;;;;;;;0.00;0.00;;;24.00;50.10;;;;;;5051410;28;20200;-48
2023/12/22 01:55:50;;;;;;;0.00;0.00;;;24.00;50.10;;;;;;5040966;28;20211;-48
2023/12/22 01:58:24;;;;;;;0.03;0.03;;;23.90;50.00;;;;;;5049640;28;20195;-46
2023/12/22 02:00:57;;;;;;;0.10;0.10;;;24.00;50.00;;;;;;5049644;28;20197;-49
2023/12/22 02:03:27;;;;;;;0.00;0.00;;;24.00;50.70;;;;;;5058099;28;20226;-51
2023/12/22 02:05:58;;;;;;;0.00;0.00;;;24.00;50.10;;;;;;5038004;28;20216;-51
2023/12/22 02:08:30;;;;;;;0.08;0.08;;;24.00;50.10;;;;;;5049122;28;20191;-47
2023/12/22 02:11:01;;;;;;;0.00;0.00;;;24.00;50.10;;;;;;5053730;28;20644;-47
2023/12/22 02:13:34;;;;;;;0.00;0.00;;;24.00;50.10;;;;;;5054649;28;20200;-49
2023/12/22 02:16:13;;;;;;;0.00;0.00;;;24.00;50.10;;;;;;5053627;28;20212;-49
2023/12/22 02:18:46;;;;;;;0.00;0.00;;;24.00;50.00;;;;;;5034568;28;20568;-48
2023/12/22 02:21:16;;;;;;;0.10;0.10;;;24.00;50.00;;;;;;5035261;28;20188;-49
2023/12/22 02:23:51;;;;;;;0.00;0.00;;;24.00;50.10;;;;;;5073299;28;20697;-49
2023/12/22 02:26:28;;;;;;;0.00;0.00;;;24.00;50.10;;;;;;5033652;28;20199;-48
2023/12/22 02:29:02;;;;;;;0.00;0.00;;;24.00;50.20;;;;;;5033351;28;20196;-48
2023/12/22 02:31:44;;;;;;;0.00;0.00;;;24.00;50.10;;;;;;5044731;28;20217;-48
2023/12/22 02:34:19;;;;;;;0.00;0.00;;;24.00;50.20;;;;;;5051796;28;20223;-49
2023/12/22 02:36:50;;;;;;;0.05;0.05;;;24.00;50.20;;;;;;5035222;28;20192;-50
2023/12/22 02:39:23;;;;;;;0.00;0.00;;;24.00;50.20;;;;;;5050919;28;20417;-48
2023/12/22 02:41:54;;;;;;;0.03;0.03;;;24.00;50.20;;;;;;5033272;28;20195;-49
2023/12/22 02:44:25;;;;;;;0.00;0.00;;;24.00;50.10;;;;;;5037443;28;20238;-49
2023/12/22 02:46:56;;;;;;;0.00;0.00;;;24.00;50.10;;;;;;5033298;28;20196;-51
2023/12/22 02:49:26;;;;;;;0.00;0.00;;;24.00;50.10;;;;;;5033197;28;20203;-51
2023/12/22 02:51:57;;;;;;;0.00;0.00;;;24.00;50.70;;;;;;5048620;28;20191;-44
2023/12/22 02:54:31;;;;;;;0.00;0.00;;;24.00;50.10;;;;;;5066811;28;20236;-43
2023/12/22 02:57:02;;;;;;;0.00;0.00;;;24.00;50.00;;;;;;5033985;28;20199;-45
2023/12/22 02:59:33;;;;;;;0.00;0.00;;;24.00;50.00;;;;;;5033032;28;20185;-46
2023/12/22 03:02:03;;;;;;;0.00;0.00;;;24.00;50.10;;;;;;5033373;28;20218;-48
2023/12/22 03:04:34;;;;;;;0.00;0.00;;;24.00;50.00;;;;;;5033453;28;20251;-48
2023/12/22 03:07:05;;;;;;;0.10;0.10;;;24.00;50.10;;;;;;5037309;28;20207;-48
2023/12/22 03:09:37;;;;;;;0.00;0.00;;;24.00;50.10;;;;;;5052694;28;20200;-50
2023/12/22 03:12:09;;;;;;;0.00;0.00;;;24.00;50.10;;;;;;5046534;28;20699;-46
2023/12/22 03:14:40;;;;;;;0.00;0.00;;;24.00;50.10;;;;;;5048750;28;20210;-50
2023/12/22 03:17:10;;;;;;;0.10;0.10;;;24.00;50.20;;;;;;5032715;28;20203;-49
2023/12/22 03:19:41;;;;;;;0.00;0.00;;;24.00;50.10;;;;;;5032998;28;20313;-50
2023/12/22 03:22:12;;;;;;;0.00;0.00;;;24.00;50.20;;;;;;5032807;28;20192;-53
2023/12/22 03:24:46;;;;;;;0.10;0.10;;;24.00;50.20;;;;;;5032674;28;20228;-50
2023/12/22 03:27:18;;;;;;;0.00;0.00;;;24.00;50.20;;;;;;5049889;28;20656;-50
2023/12/22 03:29:48;;;;;;;0.00;0.00;;;24.00;50.10;;;;;;5049949;28;20188;-53
2023/12/22 03:32:19;;;;;;;0.00;0.00;;;24.00;50.20;;;;;;5033514;28;20193;-50
2023/12/22 03:34:50;;;;;;;0.00;0.00;;;24.00;50.10;;;;;;5032237;28;20212;-50
2023/12/22 03:37:20;;;;;;;0.05;0.05;;;24.00;50.20;;;;;;5037742;28;20268;-50
2023/12/22 03:39:53;;;;;;;0.00;0.00;;;24.00;50.10;;;;;;5048001;28;20660;-45
2023/12/22 03:42:24;;;;;;;0.10;0.10;;;24.00;50.20;;;;;;5031945;28;20223;-48
2023/12/22 03:44:54;;;;;;;0.00;0.00;;;23.90;50.10;;;;;;5042211;28;20219;-49
2023/12/22 03:47:25;;;;;;;0.00;0.00;;;24.00;50.20;;;;;;5052968;28;20202;-51
2023/12/22 03:49:56;;;;;;;0.00;0.00;;;24.00;50.30;;;;;;5051746;28;20184;-52
2023/12/22 03:52:27;;;;;;;0.00;0.00;;;24.00;50.20;;;;;;5054625;28;20203;-51
2023/12/22 03:54:59;;;;;;;0.03;0.03;;;24.00;50.20;;;;;;5047870;28;20216;-49
2023/12/22 03:57:30;;;;;;;0.00;0.00;;;24.00;50.30;;;;;;5051100;28;20183;-50
2023/12/22 04:00:00;;;;;;;0.00;0.00;;;24.00;50.30;;;;;;5065343;28;20499;-49
2023/12/22 04:02:31;;;;;;;0.00;0.00;;;24.00;50.30;;;;;;5031327;28;20663;-47
2023/12/22 04:05:02;;;;;;;0.00;0.00;;;24.00;50.30;;;;;;5032186;28;20219;-54
2023/12/22 04:07:33;;;;;;;0.00;0.00;;;24.00;50.30;;;;;;5046101;28;20659;-52
2023/12/22 04:10:06;;;;;;;0.00;0.00;;;24.00;50.30;;;;;;5047758;28;20195;-51
2023/12/22 04:12:36;;;;;;;0.00;0.00;;;24.00;50.30;;;;;;5032136;28;20215;-51
2023/12/22 04:15:08;;;;;;;0.10;0.10;;;24.00;50.30;;;;;;5032234;28;20207;-53
2023/12/22 04:17:39;;;;;;;0.00;0.00;;;24.00;50.30;;;;;;5035925;28;20199;-51
2023/12/22 04:20:11;;;;;;;0.10;0.10;;;24.00;50.30;;;;;;5050406;28;20643;-48
2023/12/22 04:22:41;;;;;;;0.00;0.00;;;24.00;50.30;;;;;;5052236;28;20574;-50
2023/12/22 04:25:14;;;;;;;0.00;0.00;;;24.00;50.30;;;;;;5047958;28;20225;-48
2023/12/22 04:27:45;;;;;;;0.10;0.10;;;24.00;50.30;;;;;;5032390;28;20196;-53
2023/12/22 04:30:16;;;;;;;0.00;0.00;;;24.00;50.30;;;;;;5041721;28;20195;-51
2023/12/22 04:32:46;;;;;;;0.00;0.00;;;24.00;50.30;;;;;;5031098;28;20200;-51
2023/12/22 04:35:17;;;;;;;0.00;0.00;;;24.00;50.30;;;;;;5039992;28;20214;-47
2023/12/22 04:37:48;;;;;;;0.03;0.03;;;24.00;50.40;;;;;;5040553;28;20199;-46
2023/12/22 04:40:20;;;;;;;0.00;0.00;;;24.00;50.40;;;;;;5047309;28;20187;-47
2023/12/22 04:42:51;;;;;;;0.00;0.00;;;23.90;50.30;;;;;;5031880;28;20648;-49
2023/12/22 04:45:22;;;;;;;0.00;0.00;;;24.00;50.40;;;;;;5045515;28;20219;-54
2023/12/22 04:47:53;;;;;;;0.00;0.00;;;23.90;50.30;;;;;;5055712;28;20191;-45
2023/12/22 04:50:23;;;;;;;0.00;0.00;;;23.90;50.40;;;;;;5047902;28;20192;-44
2023/12/22 04:52:54;;;;;;;0.00;0.00;;;24.00;50.40;;;;;;5031077;28;20542;-48
2023/12/22 04:55:27;;;;;;;0.00;0.00;;;23.90;50.40;;;;;;5031159;28;20208;-47
2023/12/22 04:57:57;;;;;;;0.00;0.00;;;23.90;50.40;;;;;;5030157;28;20192;-47
2023/12/22 05:00:28;;;;;;;0.00;0.00;;;23.90;50.40;;;;;;5032957;28;20202;-49
2023/12/22 05:02:59;;;;;;;0.00;0.00;;;23.90;50.40;;;;;;5039382;28;20695;-47
2023/12/22 05:05:30;;;;;;;0.00;0.00;;;23.90;50.40;;;;;;5030947;28;20216;-49
2023/12/22 05:08:00;;;;;;;0.00;0.00;;;24.00;50.50;;;;;;5042195;28;20210;-51
2023/12/22 05:10:33;;;;;;;0.10;0.10;;;23.90;50.50;;;;;;5046769;28;20192;-48
2023/12/22 05:13:04;;;;;;;0.00;0.00;;;24.00;50.50;;;;;;5030402;28;20196;-47
2023/12/22 05:15:37;;;;;;;0.10;0.10;;;23.90;50.50;;;;;;5038126;28;20219;-51
2023/12/22 05:18:08;;;;;;;0.10;0.10;;;23.90;50.50;;;;;;5029899;28;20196;-47
2023/12/22 05:20:39;;;;;;;0.00;0.00;;;23.90;50.50;;;;;;5047232;28;20196;-45
2023/12/22 05:23:09;;;;;;;0.00;0.00;;;24.00;50.60;;;;;;5051291;28;20195;-45
2023/12/22 05:25:43;;;;;;;0.00;0.00;;;23.90;50.60;;;;;;5050575;28;20219;-48
2023/12/22 05:28:13;;;;;;;0.00;0.00;;;23.90;50.50;;;;;;5050710;28;20678;-45
2023/12/22 05:30:44;;;;;;;0.00;0.00;;;23.90;50.60;;;;;;5046581;28;20202;-47
2023/12/22 05:33:15;;;;;;;0.05;0.05;;;24.00;50.60;;;;;;5029707;28;20652;-48
2023/12/22 05:35:45;;;;;;;0.00;0.00;;;23.90;50.60;;;;;;5030096;28;20714;-50
2023/12/22 05:38:16;;;;;;;0.00;0.00;;;23.90;50.60;;;;;;5045470;28;20196;-46
2023/12/22 05:40:49;;;;;;;0.00;0.00;;;24.00;50.70;;;;;;5050790;28;20222;-48
2023/12/22 05:43:19;;;;;;;0.00;0.00;;;23.90;50.60;;;;;;5034964;28;20196;-47
2023/12/22 05:45:50;;;;;;;0.00;0.00;;;24.00;50.60;;;;;;5051844;28;20235;-48
2023/12/22 05:48:21;;;;;;;0.00;0.00;;;23.90;50.60;;;;;;5053660;28;20195;-48
2023/12/22 05:50:52;;;;;;;0.00;0.00;;;23.90;51.20;;;;;;5049706;28;20188;-48
2023/12/22 05:53:23;;;;;;;0.00;0.00;;;23.90;50.60;;;;;;5045990;28;20205;-48
2023/12/22 05:55:55;;;;;;;0.00;0.00;;;23.90;51.20;;;;;;5049772;28;20230;-49
2023/12/22 05:58:26;;;;;;;0.00;0.00;;;24.00;50.70;;;;;;5045000;28;20198;-48
2023/12/22 06:00:57;;;;;;;0.00;0.00;;;24.00;50.70;;;;;;5061971;28;20204;-48
2023/12/22 06:03:27;;;;;;;0.00;0.00;;;24.00;50.70;;;;;;5034084;28;20645;-47
2023/12/22 06:05:58;;;;;;;0.00;0.00;;;23.90;50.60;;;;;;5036257;28;20219;-47
2023/12/22 06:08:29;;;;;;;0.00;0.00;;;23.90;50.70;;;;;;5053066;28;20203;-47
2023/12/22 06:11:01;;;;;;;0.00;0.00;;;24.00;50.70;;;;;;5055714;28;20194;-47
2023/12/22 06:13:32;;;;;;;0.00;0.00;;;23.90;50.70;;;;;;5053244;28;20191;-44
2023/12/22 06:16:03;;;;;;;0.00;0.00;;;24.00;50.70;;;;;;5053391;28;20215;-45
2023/12/22 06:18:33;;;;;;;0.00;0.00;;;23.90;50.70;;;;;;5053659;28;20375;-42
2023/12/22 06:21:04;;;;;;;0.00;0.00;;;23.90;50.70;;;;;;5049670;28;20196;-44
2023/12/22 06:23:36;;;;;;;0.00;0.00;;;24.00;50.70;;;;;;5033253;28;20196;-45
2023/12/22 06:26:12;;;;;;;0.00;0.00;;;24.00;50.80;;;;;;5037622;28;20235;-44
2023/12/22 06:28:43;;;;;;;0.00;0.00;;;23.90;50.70;;;;;;5053858;28;20195;-44
2023/12/22 06:31:21;;;;;;;0.10;0.10;;;23.90;50.70;;;;;;5053116;28;20210;-46
2023/12/22 06:33:53;;;;;;;0.05;0.05;;;23.90;50.70;;;;;;5053302;28;20201;-44
2023/12/22 06:36:24;;;;;;;0.00;0.00;;;24.00;50.80;;;;;;5047989;28;20274;-45
2023/12/22 06:38:55;;;;;;;0.10;0.10;;;23.90;50.80;;;;;;5052175;28;20230;-47
2023/12/22 06:41:28;;;;;;;0.00;0.00;;;23.90;50.80;;;;;;5047119;28;20188;-47
2023/12/22 06:44:01;;;;;;;0.03;0.03;;;24.00;50.90;;;;;;5037468;28;20188;-50
2023/12/22 06:46:32;;;;;;;0.00;0.00;;;23.90;50.80;;;;;;5046144;28;20204;-47
2023/12/22 06:49:03;;;;;;;0.00;0.00;;;24.00;50.80;;;;;;5032903;28;20192;-46
2023/12/22 06:51:35;;;;;;;0.00;0.00;;;23.90;50.80;;;;;;5036658;28;20195;-43
2023/12/22 06:54:06;;;;;;;0.00;0.00;;;23.90;50.80;;;;;;5054307;28;20199;-42
2023/12/22 06:56:39;;;;;;;0.00;0.00;;;23.90;50.80;;;;;;5053854;28;20192;-43
2023/12/22 06:59:11;;;;;;;0.00;0.00;;;23.90;50.80;;;;;;5053405;28;20238;-45
2023/12/22 07:01:44;;;;;;;0.03;0.03;;;23.90;50.80;;;;;;5053116;28;20296;-46
2023/12/22 07:04:14;;;;;;;0.00;0.00;;;23.90;50.80;;;;;;5053260;28;20558;-43
2023/12/22 07:06:45;;;;;;;0.03;0.03;;;23.90;50.80;;;;;;5052860;28;20198;-46
2023/12/22 07:09:34;;;;;;;0.00;0.00;;;23.90;50.80;;;;;;5052979;28;20218;-44
2023/12/22 07:12:06;;;;;;;0.00;0.00;;;23.90;50.80;;;;;;5053620;28;20203;-46
2023/12/22 07:14:37;;;;;;;0.00;0.00;;;23.90;50.80;;;;;;5053275;28;20682;-47
2023/12/22 07:17:08;;;;;;;0.00;0.00;;;23.80;50.80;;;;;;5052884;28;20475;-43
2023/12/22 07:19:39;;;;;;;0.00;0.00;;;23.90;50.90;;;;;;5051514;28;20698;-43
2023/12/22 07:22:09;;;;;;;0.00;0.00;;;23.80;50.80;;;;;;5048434;28;20215;-44
2023/12/22 07:24:40;;;;;;;0.00;0.00;;;23.80;50.80;;;;;;5031217;28;20323;-45
2023/12/22 07:27:13;;;;;;;0.10;0.10;;;23.90;50.90;;;;;;5033707;28;20675;-45
2023/12/22 07:29:43;;;;;;;0.00;0.00;;;23.80;50.80;;;;;;5033055;28;20242;-45
2023/12/22 07:32:14;;;;;;;0.00;0.00;;;23.80;50.80;;;;;;5033021;28;20203;-44
2023/12/22 07:34:45;;;;;;;0.00;0.00;;;23.90;50.80;;;;;;5032951;28;20583;-43
2023/12/22 07:37:16;;;;;;;0.00;0.00;;;23.80;50.80;;;;;;5037976;28;20199;-45
2023/12/22 07:39:47;;;;;;;0.10;0.10;;;23.80;50.80;;;;;;5052587;28;20192;-43
2023/12/22 07:42:19;;;;;;;0.10;0.10;;;23.80;50.80;;;;;;5053582;28;20257;-44
2023/12/22 07:44:50;;;;;;;0.00;0.00;;;23.80;50.80;;;;;;5053092;28;20227;-46
2023/12/22 07:47:21;;;;;;;0.00;0.00;;;23.80;50.80;;;;;;5052670;28;20191;-43
2023/12/22 07:49:51;;;;;;;0.00;0.00;;;23.80;50.90;;;;;;5052439;28;20652;-44
2023/12/22 07:52:22;;;;;;;0.00;0.00;;;23.80;50.80;;;;;;5053114;28;20268;-44
2023/12/22 07:54:53;;;;;;;0.00;0.00;;;23.80;50.80;;;;;;5052982;28;20219;-43
2023/12/22 07:57:25;;;;;;;0.00;0.00;;;23.80;50.90;;;;;;5052958;28;20195;-50
2023/12/22 07:59:56;;;;;;;0.00;0.00;;;23.70;50.90;;;;;;5052665;28;20199;-53
2023/12/22 08:02:27;;;;;;;0.00;0.00;;;23.70;50.80;;;;;;5054519;28;20199;-51
2023/12/22 08:04:57;;;;;;;0.00;0.00;;;23.70;50.80;;;;;;5053243;28;20227;-53
2023/12/22 08:07:29;;;;;;;0.00;0.00;;;23.80;50.90;;;;;;5064648;28;20283;-53
2023/12/22 08:10:01;;;;;;;0.10;0.10;;;23.80;50.90;;;;;;5054447;28;20198;-50
2023/12/22 08:12:34;;;;;;;0.10;0.10;;;23.80;50.90;;;;;;5052217;28;20291;-47
2023/12/22 08:15:05;;;;;;;0.00;0.00;;;23.80;50.90;;;;;;5036095;28;20235;-50
2023/12/22 08:17:36;;;;;;;0.10;0.10;;;23.70;50.80;;;;;;5032295;28;20657;-49
2023/12/22 08:20:08;;;;;;;0.03;0.03;;;23.70;50.80;;;;;;5047064;28;20199;-44
2023/12/22 08:22:38;;;;;;;0.00;0.00;;;23.70;50.80;;;;;;5051393;28;20282;-52
2023/12/22 08:25:10;;;;;;;0.00;0.00;;;23.70;50.80;;;;;;5051343;28;20230;-43
2023/12/22 08:27:42;;;;;;;0.00;0.00;;;23.70;50.80;;;;;;5050448;28;20203;-43
2023/12/22 08:30:14;;;;;;;0.00;0.00;;;23.70;50.80;;;;;;5050574;28;20203;-48
2023/12/22 08:32:45;;;;;;;0.00;0.00;;;23.70;50.80;;;;;;5050443;28;20196;-45
2023/12/22 08:35:16;;;;;;;0.00;0.00;;;23.70;50.80;;;;;;5033002;28;20720;-43
2023/12/22 08:37:47;;;;;;;0.00;0.00;;;23.70;50.80;;;;;;5043043;28;20249;-42
2023/12/22 08:40:18;;;;;;;0.00;0.00;;;23.70;50.80;;;;;;5032822;28;20210;-45
2023/12/22 08:42:54;;;;;;;0.00;0.00;;;23.70;50.80;;;;;;5047214;28;20196;-43
2023/12/22 08:45:25;;;;;;;0.00;0.00;;;23.70;50.80;;;;;;5050382;28;20207;-46
2023/12/22 08:47:55;;;;;;;0.00;0.00;;;23.70;50.80;;;;;;5050799;28;20195;-50
2023/12/22 08:50:26;;;;;;;0.00;0.00;;;23.60;50.70;;;;;;5059919;28;20190;-49
2023/12/22 08:52:57;;;;;;;0.00;0.00;;;23.60;50.70;;;;;;5070788;28;20206;-44
2023/12/22 08:55:27;;;;;;;0.00;0.00;;;23.70;50.80;;;;;;5033585;28;20247;-44
2023/12/22 08:58:00;;;;;;;0.00;0.00;;;23.60;50.70;;;;;;5030150;28;20200;-47
2023/12/22 09:00:31;;;;;;;0.00;0.00;;;23.60;50.70;;;;;;5049274;28;20206;-45
2023/12/22 09:03:02;;;;;;;0.00;0.00;;;23.60;50.70;;;;;;5050084;28;20191;-44
2023/12/22 09:05:33;;;;;;;0.00;0.00;;;23.60;50.70;;;;;;5050257;28;20308;-44
2023/12/22 09:08:04;;;;;;;0.00;0.00;;;23.60;51.00;;;;;;5049644;28;20688;-50
2023/12/22 09:10:35;;;;;;;0.00;0.00;;;23.60;50.70;;;;;;5032071;28;20197;-46
2023/12/22 09:13:08;;;;;;;0.00;0.00;;;23.60;50.70;;;;;;5042075;28;20632;-49
2023/12/22 09:15:38;;;;;;;0.00;0.00;;;23.60;50.70;;;;;;5049905;28;20571;-51
2023/12/22 09:18:09;;;;;;;0.00;0.00;;;23.60;50.60;;;;;;5050065;28;20195;-51
2023/12/22 09:20:40;;;;;;;0.00;0.00;;;23.60;50.60;;;;;;5049912;28;20191;-48
2023/12/22 09:23:11;;;;;;;0.00;0.00;;;23.60;50.60;;;;;;5050220;28;20659;-52
2023/12/22 09:25:42;;;;;;;0.00;0.00;;;23.60;50.60;;;;;;5049269;28;20227;-47
2023/12/22 09:28:15;;;;;;;0.10;0.10;;;23.50;51.20;;;;;;5050214;28;20201;-46
2023/12/22 09:30:45;;;;;;;0.00;0.00;;;23.50;50.50;;;;;;5031084;28;20194;-44
2023/12/22 09:33:16;;;;;;;0.10;0.10;;;23.50;50.50;;;;;;5030449;28;20203;-45
2023/12/22 09:35:47;;;;;;;0.08;0.08;;;23.50;50.50;;;;;;5030511;28;20216;-45
2023/12/22 09:38:18;;;;;;;0.00;0.00;;;23.50;50.50;;;;;;5044173;28;20200;-44
2023/12/22 09:40:48;;;;;;;0.10;0.10;;;23.50;50.50;;;;;;5043001;28;20215;-46
2023/12/22 09:43:23;;;;;;;0.00;0.00;;;23.50;50.50;;;;;;5049695;28;20206;-47
2023/12/22 09:45:54;;;;;;;0.00;0.00;;;23.50;50.50;;;;;;5050134;28;20649;-51
2023/12/22 09:48:27;;;;;;;0.10;0.10;;;23.50;50.50;;;;;;5050225;28;20210;-45
2023/12/22 09:50:58;;;;;;;0.00;0.00;;;23.50;50.50;;;;;;5049161;28;20762;-46
2023/12/22 09:53:31;;;;;;;0.00;0.00;;;23.50;50.50;;;;;;5049932;28;20196;-45
2023/12/22 09:56:03;;;;;;;0.00;0.00;;;23.50;50.50;;;;;;5030241;28;20266;-47
2023/12/22 09:58:39;;;;;;;0.00;0.00;;;23.50;50.50;;;;;;5030055;28;20196;-43
2023/12/22 10:01:11;;;;;;;0.08;0.08;;;23.50;50.50;;;;;;5030253;28;20191;-44
2023/12/22 10:03:46;;;;;;;0.00;0.00;;;23.50;50.40;;;;;;5030373;28;20683;-45
2023/12/22 10:06:17;;;;;;;0.00;0.00;;;23.40;50.40;;;;;;5041423;28;20314;-45
2023/12/22 10:08:51;;;;;;;0.03;0.03;;;23.40;50.30;;;;;;5058034;28;20199;-43
2023/12/22 10:11:23;;;;;;;0.10;0.10;;;23.40;50.40;;;;;;5030055;28;20215;-44
2023/12/22 10:13:57;;;;;;;0.00;0.00;;;23.40;50.30;;;;;;5037526;28;20693;-47
2023/12/22 10:16:28;;;;;;;0.00;0.00;;;23.40;50.40;;;;;;5049500;28;20195;-44
2023/12/22 10:18:59;;;;;;;0.08;0.08;;;23.40;50.30;;;;;;5048833;28;20203;-48
2023/12/22 10:21:30;;;;;;;0.00;0.00;;;23.40;50.30;;;;;;5030341;28;20207;-42
2023/12/22 10:24:01;;;;;;;0.00;0.00;;;23.40;50.30;;;;;;5031443;28;20200;-43
2023/12/22 10:26:32;;;;;;;0.00;0.00;;;23.30;50.30;;;;;;5034254;28;20231;-46
2023/12/22 10:29:08;;;;;;;0.00;0.00;;;23.30;50.30;;;;;;5049653;28;20192;-44
2023/12/22 10:31:43;;;;;;;0.00;0.00;;;23.30;50.90;;;;;;5046367;28;20199;-44
2023/12/22 10:34:14;;;;;;;0.10;0.10;;;23.30;50.30;;;;;;5041597;28;20640;-43
2023/12/22 10:36:45;;;;;;;0.00;0.00;;;23.30;50.30;;;;;;5042821;28;20445;-44
2023/12/22 10:39:16;;;;;;;0.00;0.00;;;23.30;50.30;;;;;;5042307;28;20196;-44
2023/12/22 10:41:47;;;;;;;0.00;0.00;;;23.30;50.30;;;;;;5041429;28;20196;-43
2023/12/22 10:44:20;;;;;;;0.00;0.00;;;23.30;50.20;;;;;;5042566;28;20242;-44
2023/12/22 10:46:51;;;;;;;0.00;0.00;;;23.30;50.20;;;;;;5050995;28;20565;-45
2023/12/22 10:49:22;;;;;;;0.00;0.00;;;23.30;50.20;;;;;;5053852;28;20192;-44
2023/12/22 10:51:53;;;;;;;0.10;0.10;;;23.30;50.30;;;;;;5054135;28;20202;-42
2023/12/22 10:54:24;;;;;;;0.00;0.00;;;23.30;50.20;;;;;;5042263;28;20216;-42
2023/12/22 10:56:57;;;;;;;0.00;0.00;;;23.30;50.20;;;;;;5044578;28;20199;-46
2023/12/22 10:59:32;;;;;;;0.03;0.03;;;23.30;50.20;;;;;;5041197;28;20193;-43
2023/12/22 11:02:04;;;;;;;0.00;0.00;;;23.20;50.20;;;;;;5042424;28;20529;-45
2023/12/22 11:04:39;;;;;;;0.00;0.00;;;23.20;50.80;;;;;;5042469;28;20258;-44
2023/12/22 11:07:12;;;;;;;0.00;0.00;;;23.20;50.20;;;;;;5043336;28;20230;-45
2023/12/22 11:09:46;;;;;;;0.00;0.00;;;23.20;50.20;;;;;;5042514;28;20203;-43
2023/12/22 11:12:17;;;;;;;0.00;0.00;;;23.10;50.10;;;;;;5041719;28;20192;-43
2023/12/22 11:14:52;;;;;;;0.00;0.00;;;23.10;50.20;;;;;;5043755;28;20555;-45
2023/12/22 11:17:25;;;;;;;0.10;0.10;;;23.10;50.10;;;;;;5044088;28;20195;-43
2023/12/22 11:19:58;;;;;;;0.00;0.00;;;23.10;50.20;;;;;;5044552;28;20192;-44
2023/12/22 11:22:29;;;;;;;0.10;0.10;;;23.10;50.20;;;;;;5044501;28;20190;-43
2023/12/22 11:25:02;;;;;;;0.00;0.00;;;23.10;50.20;;;;;;5040757;28;20671;-43
2023/12/22 11:27:35;;;;;;;0.00;0.00;;;23.10;50.20;;;;;;5043157;28;20231;-44
2023/12/22 11:30:09;;;;;;;0.10;0.10;;;23.10;50.20;;;;;;5042450;28;20332;-43
2023/12/22 11:32:41;;;;;;;0.00;0.00;;;23.10;50.20;;;;;;5041565;28;20245;-43
2023/12/22 11:35:13;;;;;;;0.00;0.00;;;23.10;50.20;;;;;;5042683;28;20215;-44
2023/12/22 11:37:46;;;;;;;0.00;0.00;;;23.10;50.10;;;;;;5043302;28;20282;-43
2023/12/22 11:40:17;;;;;;;0.00;0.00;;;23.10;50.20;;;;;;5042587;28;20207;-43
2023/12/22 11:42:51;;;;;;;0.00;0.00;;;23.10;50.10;;;;;;5040774;28;20199;-43
2023/12/22 11:45:24;;;;;;;0.00;0.00;;;23.10;50.10;;;;;;5042863;28;20214;-46
2023/12/22 11:47:55;;;;;;;0.10;0.10;;;23.00;50.10;;;;;;5041660;28;20679;-42
2023/12/22 11:50:35;;;;;;;0.00;0.00;;;23.00;50.20;;;;;;5041709;28;20196;-46
2023/12/22 11:53:23;;;;;;;0.00;0.00;;;23.00;50.20;;;;;;5042874;28;20722;-45
2023/12/22 11:56:08;;;;;;;0.00;0.00;;;23.00;50.10;;;;;;5040894;28;20219;-44
2023/12/22 11:58:39;;;;;;;0.10;0.10;;;23.00;50.10;;;;;;5042464;28;20195;-43
2023/12/22 12:01:13;;;;;;;0.10;0.10;;;23.00;50.10;;;;;;5043021;28;20188;-43
2023/12/22 12:03:53;;;;;;;0.10;0.10;;;22.90;50.10;;;;;;5042019;28;20192;-43
2023/12/22 12:06:36;;;;;;;0.05;0.05;;;22.90;50.10;;;;;;5040027;28;20220;-45
2023/12/22 12:09:10;;;;;;;0.00;0.00;;;22.90;50.10;;;;;;5048450;28;20187;-42
2023/12/22 12:12:14;;;;;;;0.00;0.00;;;22.90;50.10;;;;;;5043507;28;20200;-43
2023/12/22 12:14:49;;;;;;;0.05;0.05;;;22.90;50.10;;;;;;5041771;28;20212;-42
2023/12/22 12:17:22;;;;;;;0.00;0.00;;;22.90;50.10;;;;;;5041521;28;20569;-44
2023/12/22 12:19:53;;;;;;;0.00;0.00;;;22.90;50.10;;;;;;5039620;28;20200;-45
2023/12/22 12:22:26;;;;;;;0.10;0.10;;;22.90;50.10;;;;;;5040727;28;20207;-47
2023/12/22 12:24:57;;;;;;;0.10;0.10;;;22.90;50.10;;;;;;5041469;28;20207;-51
2023/12/22 12:27:28;;;;;;;0.00;0.00;;;22.90;50.10;;;;;;5032291;28;20227;-47
2023/12/22 12:29:59;;;;;;;0.10;0.10;;;22.90;50.10;;;;;;5032109;28;20200;-52
2023/12/22 12:32:33;;;;;;;0.10;0.10;;;22.90;50.10;;;;;;5037675;28;20199;-52
2023/12/22 12:35:04;;;;;;;0.00;0.00;;;22.90;50.10;;;;;;5052154;28;20226;-51
2023/12/22 12:37:35;;;;;;;0.08;0.08;;;22.80;50.10;;;;;;5051895;28;20204;-51
2023/12/22 12:40:12;;;;;;;0.08;0.08;;;22.80;50.10;;;;;;5051516;28;20207;-48
2023/12/22 12:42:43;;;;;;;0.10;0.10;;;22.80;50.10;;;;;;5052022;28;20195;-49
2023/12/22 12:45:14;;;;;;;0.00;0.00;;;22.80;50.20;;;;;;5052007;28;20222;-48
2023/12/22 12:47:46;;;;;;;0.05;0.05;;;22.80;50.20;;;;;;5051106;28;20219;-45
2023/12/22 12:50:23;;;;;;;0.10;0.10;;;22.80;50.20;;;;;;5051840;28;20202;-43
2023/12/22 12:52:55;;;;;;;0.03;0.03;;;22.80;50.20;;;;;;5042842;28;20192;-42
2023/12/22 12:55:27;;;;;;;0.00;0.00;;;22.80;50.20;;;;;;5041226;28;20266;-45
2023/12/22 12:57:58;;;;;;;0.03;0.03;;;22.80;50.20;;;;;;5039487;28;20301;-43
2023/12/22 13:00:29;;;;;;;0.00;0.00;;;22.80;50.20;;;;;;5039969;28;20650;-43
2023/12/22 13:03:04;;;;;;;0.10;0.10;;;22.80;50.20;;;;;;5040402;28;20199;-44
2023/12/22 13:05:35;;;;;;;0.03;0.03;;;22.80;50.20;;;;;;5040100;28;20204;-44
2023/12/22 13:08:13;;;;;;;0.00;0.00;;;22.80;50.20;;;;;;5042610;28;20734;-43
2023/12/22 13:10:44;;;;;;;0.00;0.00;;;22.80;50.80;;;;;;5040216;28;20195;-43
2023/12/22 13:13:15;;;;;;;0.00;0.00;;;22.80;50.20;;;;;;5040311;28;20188;-43